Time;durP1;ratioP1;P1;durP2;ratioP2;P2;SDS_P1;SDS_P2;PMS_P1;PMS_P2;Temp;Humidity;BMP_temperature;BMP_pressure;BME280_temperature;BME280_humidity;BME280_pressure;Samples;Min_cycle;Max_cycle;Signal;HPM_P1;HPM_P2
2024/04/14 00:00:52;;;;;;;;;;;;;;;12.64;100.00;99768.41;108387;1250;59804;-58
2024/04/14 00:03:19;;;;;;;7.40;6.30;;;;;;;12.65;100.00;99765.20;108593;1251;74827;-58
2024/04/14 00:05:47;;;;;;;9.70;7.30;;;;;;;12.61;100.00;99762.25;108498;1250;69375;-57
2024/04/14 00:08:15;;;;;;;11.40;6.90;;;;;;;12.56;100.00;99761.60;108252;1251;72339;-58
2024/04/14 00:10:43;;;;;;;8.00;7.00;;;;;;;12.49;100.00;99764.44;108528;1251;62529;-58
2024/04/14 00:13:10;;;;;;;12.10;6.70;;;;;;;12.45;100.00;99766.39;108518;1251;59777;-57
2024/04/14 00:15:38;;;;;;;9.00;6.90;;;;;;;12.41;100.00;99764.27;108492;1251;74860;-57
2024/04/14 00:18:05;;;;;;;10.30;6.80;;;;;;;12.38;100.00;99767.06;108535;1250;69000;-57
2024/04/14 00:20:34;;;;;;;8.70;7.80;;;;;;;12.36;100.00;99769.79;108549;1251;73718;-59
2024/04/14 00:23:01;;;;;;;;;;;;;;;12.35;100.00;99770.90;108574;1251;61840;-57
2024/04/14 00:25:29;;;;;;;7.90;7.10;;;;;;;12.32;100.00;99774.38;108536;1251;59471;-57
2024/04/14 00:27:56;;;;;;;7.00;6.30;;;;;;;12.30;100.00;99776.80;108495;1251;74454;-58
2024/04/14 00:30:24;;;;;;;8.20;6.90;;;;;;;12.30;100.00;99775.39;108525;1250;69505;-58
2024/04/14 00:32:52;;;;;;;9.30;6.50;;;;;;;12.30;100.00;99778.54;108544;1251;72463;-58
2024/04/14 00:35:21;;;;;;;9.90;7.10;;;;;;;12.30;100.00;99783.46;108520;1251;61484;-58
2024/04/14 00:37:49;;;;;;;9.70;7.00;;;;;;;12.31;100.00;99780.96;108540;1251;60252;-58
2024/04/14 00:40:16;;;;;;;10.00;6.70;;;;;;;12.31;100.00;99782.70;108535;1251;74576;-58
2024/04/14 00:42:45;;;;;;;8.70;6.30;;;;;;;12.30;100.00;99781.16;108500;1251;69094;-61
2024/04/14 00:45:13;;;;;;;7.30;6.50;;;;;;;12.30;100.00;99778.70;108473;1251;73363;-58
2024/04/14 00:47:40;;;;;;;8.90;6.70;;;;;;;12.30;100.00;99783.09;108451;1250;60582;-58
2024/04/14 00:50:08;;;;;;;6.40;5.80;;;;;;;12.34;100.00;99783.06;108507;1251;60304;-59
2024/04/14 00:52:35;;;;;;;8.20;5.40;;;;;;;12.38;100.00;99777.25;108493;1251;75349;-58
2024/04/14 00:55:03;;;;;;;5.80;5.30;;;;;;;12.43;100.00;99776.69;108567;1250;69651;-58
2024/04/14 00:57:31;;;;;;;6.10;5.50;;;;;;;12.47;100.00;99771.55;108450;1251;72360;-62
2024/04/14 00:59:58;;;;;;;7.80;5.20;;;;;;;12.51;100.00;99773.82;108524;1251;61482;-58
2024/04/14 01:02:26;;;;;;;12.70;5.80;;;;;;;12.54;100.00;99769.98;108523;1250;59734;-58
2024/04/14 01:04:53;;;;;;;5.30;4.70;;;;;;;12.55;100.00;99768.89;108493;1251;76873;-58
2024/04/14 01:07:21;;;;;;;6.00;4.40;;;;;;;12.57;100.00;99769.64;108341;1251;69771;-58
2024/04/14 01:09:49;;;;;;;5.50;4.90;;;;;;;12.57;100.00;99765.80;108537;1251;72881;-58
2024/04/14 01:12:17;;;;;;;4.90;4.50;;;;;;;12.58;100.00;99760.48;108515;1251;61374;-58
2024/04/14 01:14:44;;;;;;;5.10;4.70;;;;;;;12.57;100.00;99763.15;108504;1250;60089;-58
2024/04/14 01:17:12;;;;;;;8.60;4.70;;;;;;;12.52;100.00;99752.13;108552;1251;76028;-58
2024/04/14 01:19:40;;;;;;;4.70;4.30;;;;;;;12.59;100.00;99759.52;108461;1251;69160;-58
2024/04/14 01:22:07;;;;;;;4.10;3.60;;;;;;;12.59;100.00;99760.80;108440;1251;73381;-58
2024/04/14 01:24:35;;;;;;;7.50;4.40;;;;;;;12.56;100.00;99759.00;108421;1251;62353;-58
2024/04/14 01:27:03;;;;;;;;;;;;;;;12.54;100.00;99762.24;108571;1251;62435;-59
2024/04/14 01:29:30;;;;;;;3.90;3.60;;;;;;;12.51;100.00;99762.94;108261;1250;74456;-59
2024/04/14 01:31:58;;;;;;;4.50;4.10;;;;;;;12.49;100.00;99765.50;108575;1251;69550;-58
2024/04/14 01:34:26;;;;;;;5.60;3.50;;;;;;;12.49;100.00;99771.12;108521;1251;73836;-58
2024/04/14 01:36:54;;;;;;;4.60;3.60;;;;;;;12.49;100.00;99772.20;108503;1251;61403;-59
2024/04/14 01:39:21;;;;;;;4.10;3.70;;;;;;;12.47;100.00;99768.04;108515;1250;60308;-58
2024/04/14 01:41:49;;;;;;;4.30;3.80;;;;;;;12.46;100.00;99769.48;108572;1251;74586;-58
2024/04/14 01:44:17;;;;;;;4.00;3.60;;;;;;;12.46;100.00;99767.02;108493;1250;68005;-58
2024/04/14 01:46:44;;;;;;;;;;;;;;;12.43;100.00;99758.38;108543;1250;72480;-58
2024/04/14 01:49:11;;;;;;;4.10;3.70;;;;;;;12.41;100.00;99762.71;108542;1250;61766;-58
2024/04/14 01:51:39;;;;;;;5.90;3.70;;;;;;;12.39;100.00;99765.08;108562;1251;60490;-57
2024/04/14 01:54:06;;;;;;;4.70;3.40;;;;;;;12.35;100.00;99759.65;108487;1250;74464;-58
2024/04/14 01:56:34;;;;;;;7.90;3.70;;;;;;;12.32;100.00;99758.77;108544;1251;69556;-58
2024/04/14 01:59:05;;;;;;;5.70;4.10;;;;;;;12.28;100.00;99759.27;108517;1250;72342;-58
2024/04/14 02:01:33;;;;;;;5.10;3.50;;;;;;;12.24;100.00;99761.59;108529;1250;61394;-58
2024/04/14 02:04:02;;;;;;;3.40;3.20;;;;;;;12.21;100.00;99767.73;108426;1251;60441;-58
2024/04/14 02:06:30;;;;;;;4.00;3.60;;;;;;;12.16;100.00;99774.96;108546;1251;74530;-58
2024/04/14 02:08:58;;;;;;;4.40;3.70;;;;;;;12.13;100.00;99782.17;108543;1250;69383;-57
2024/04/14 02:11:25;;;;;;;4.60;4.20;;;;;;;12.08;100.00;99787.45;108529;1250;72882;-58
2024/04/14 02:13:53;;;;;;;5.10;3.60;;;;;;;12.08;100.00;99787.80;108554;1251;60864;-58
2024/04/14 02:16:21;;;;;;;5.10;3.80;;;;;;;12.07;100.00;99783.64;108543;1250;60397;-57
2024/04/14 02:18:48;;;;;;;4.50;4.10;;;;;;;12.00;100.00;99785.92;108529;1250;74520;-57
2024/04/14 02:21:16;;;;;;;4.80;4.00;;;;;;;12.01;100.00;99790.60;108486;1251;70007;-58
2024/04/14 02:23:46;;;;;;;6.10;4.80;;;;;;;11.99;100.00;99788.23;108551;1250;72525;-58
2024/04/14 02:26:13;;;;;;;7.70;4.10;;;;;;;11.99;100.00;99794.54;108560;1251;61750;-59
2024/04/14 02:28:40;;;;;;;5.20;4.70;;;;;;;12.00;100.00;99799.10;108541;1250;59215;-60
2024/04/14 02:31:08;;;;;;;6.90;4.90;;;;;;;12.00;100.00;99800.31;108544;1251;74422;-60
2024/04/14 02:33:35;;;;;;;5.30;4.30;;;;;;;11.99;100.00;99800.00;108563;1250;69163;-60
2024/04/14 02:36:04;;;;;;;4.70;4.30;;;;;;;11.96;100.00;99798.06;108561;1251;72542;-61
2024/04/14 02:38:31;;;;;;;;;;;;;;;11.95;100.00;99794.42;108555;1250;61389;-60
2024/04/14 02:41:03;;;;;;;5.00;4.20;;;;;;;11.93;100.00;99790.29;108555;1250;59540;-62
2024/04/14 02:43:34;;;;;;;8.20;3.90;;;;;;;11.92;100.00;99794.38;108392;1250;74478;-61
2024/04/14 02:46:01;;;;;;;5.60;4.50;;;;;;;11.88;100.00;99790.13;108520;1255;69609;-61
2024/04/14 02:48:29;;;;;;;4.90;4.50;;;;;;;11.87;100.00;99780.48;108533;1250;72887;-61
2024/04/14 02:50:56;;;;;;;4.60;4.20;;;;;;;11.87;100.00;99778.41;108525;1251;61361;-61
2024/04/14 02:53:24;;;;;;;4.60;4.20;;;;;;;11.85;100.00;99778.10;108529;1250;59883;-61
2024/04/14 02:55:52;;;;;;;4.80;4.40;;;;;;;11.85;100.00;99777.94;108496;1251;74469;-60
2024/04/14 02:58:19;;;;;;;4.60;4.20;;;;;;;11.84;100.00;99775.05;108549;1250;68194;-60
2024/04/14 03:00:47;;;;;;;4.80;4.30;;;;;;;11.80;100.00;99773.63;108505;1251;72950;-60
2024/04/14 03:03:14;;;;;;;5.10;4.30;;;;;;;11.76;100.00;99776.63;108507;1251;62203;-61
2024/04/14 03:05:42;;;;;;;4.20;3.90;;;;;;;11.74;100.00;99768.62;108560;1251;61267;-61
2024/04/14 03:08:09;;;;;;;5.20;4.50;;;;;;;11.75;100.00;99761.92;108495;1251;74423;-60
2024/04/14 03:10:37;;;;;;;6.20;3.90;;;;;;;11.76;100.00;99753.41;108533;1251;68028;-61
2024/04/14 03:13:04;;;;;;;4.60;4.20;;;;;;;11.79;100.00;99748.58;108480;1253;72220;-61
2024/04/14 03:15:32;;;;;;;6.60;4.90;;;;;;;11.82;100.00;99750.52;108560;1250;61365;-61
2024/04/14 03:17:59;;;;;;;5.90;5.00;;;;;;;11.78;100.00;99755.96;108428;1251;59783;-60
2024/04/14 03:20:27;;;;;;;4.60;4.20;;;;;;;11.75;100.00;99762.82;108555;1250;74971;-61
2024/04/14 03:22:54;;;;;;;4.40;4.00;;;;;;;11.71;100.00;99770.70;108504;1251;69591;-61
2024/04/14 03:25:23;;;;;;;9.20;4.30;;;;;;;11.65;100.00;99767.09;108444;1251;71394;-61
2024/04/14 03:27:51;;;;;;;4.70;4.30;;;;;;;11.62;100.00;99766.91;108432;1251;61369;-60
2024/04/14 03:30:19;;;;;;;5.70;4.80;;;;;;;11.61;100.00;99763.05;108439;1250;61160;-60
2024/04/14 03:32:46;;;;;;;8.10;5.40;;;;;;;11.61;100.00;99760.80;108475;1251;74682;-60
2024/04/14 03:35:14;;;;;;;7.50;5.10;;;;;;;11.54;100.00;99761.11;108519;1251;70643;-60
2024/04/14 03:37:42;;;;;;;6.90;4.90;;;;;;;11.48;100.00;99763.13;108485;1251;72177;-61
2024/04/14 03:40:09;;;;;;;5.20;4.70;;;;;;;11.47;100.00;99761.59;108405;1251;61746;-61
2024/04/14 03:42:36;;;;;;;7.10;5.80;;;;;;;11.47;100.00;99760.89;108563;1251;60060;-60
2024/04/14 03:45:08;;;;;;;7.40;5.30;;;;;;;11.44;100.00;99764.68;108525;1251;74544;-60
2024/04/14 03:47:35;;;;;;;7.30;6.10;;;;;;;11.42;100.00;99764.11;107981;1251;69233;-60
2024/04/14 03:50:03;;;;;;;;;;;;;;;11.38;100.00;99765.30;108349;1253;72491;-60
2024/04/14 03:52:31;;;;;;;;;;;;;;;11.34;100.00;99768.46;108551;1251;61359;-61
2024/04/14 03:54:58;;;;;;;6.10;5.30;;;;;;;11.32;100.00;99769.63;108523;1250;59841;-61
2024/04/14 03:57:25;;;;;;;5.50;5.00;;;;;;;11.35;100.00;99765.80;108538;1251;74640;-61
2024/04/14 03:59:53;;;;;;;6.60;5.10;;;;;;;11.36;100.00;99765.05;108520;1251;69236;-62
2024/04/14 04:02:20;;;;;;;6.70;5.40;;;;;;;11.41;100.00;99763.63;108221;1251;72358;-60
2024/04/14 04:04:48;;;;;;;6.80;5.60;;;;;;;11.46;100.00;99761.48;108567;1251;63139;-61
2024/04/14 04:07:16;;;;;;;6.10;5.50;;;;;;;11.51;100.00;99761.08;108513;1250;59329;-61
2024/04/14 04:09:43;;;;;;;6.70;6.00;;;;;;;11.57;100.00;99760.61;108423;1251;73465;-61
2024/04/14 04:12:11;;;;;;;6.00;5.40;;;;;;;11.62;100.00;99766.52;108203;1250;69442;-61
2024/04/14 04:14:39;;;;;;;10.20;5.90;;;;;;;11.64;100.00;99766.96;108450;1251;72427;-60
2024/04/14 04:17:06;;;;;;;6.50;5.90;;;;;;;11.64;100.00;99768.01;108531;1251;61438;-61
2024/04/14 04:19:34;;;;;;;6.20;5.60;;;;;;;11.76;100.00;99765.73;108510;1254;59636;-61
2024/04/14 04:22:02;;;;;;;6.70;5.90;;;;;;;12.17;100.00;99761.73;108510;1251;74374;-61
2024/04/14 04:24:29;;;;;;;;;;;;;;;12.91;100.00;99758.52;108589;1251;69133;-60
2024/04/14 04:26:57;;;;;;;5.80;5.30;;;;;;;12.64;100.00;99759.80;108526;1251;73867;-60
2024/04/14 04:29:27;;;;;;;6.40;5.80;;;;;;;13.00;100.00;99758.92;108430;1251;61749;-59
2024/04/14 04:31:55;;;;;;;6.10;5.60;;;;;;;13.22;100.00;99757.42;108484;1251;59744;-57
2024/04/14 04:34:22;;;;;;;6.60;6.00;;;;;;;13.33;100.00;99761.10;108531;1251;73428;-56
2024/04/14 04:36:50;;;;;;;7.00;6.30;;;;;;;13.44;100.00;99755.27;108532;1250;70452;-56
2024/04/14 04:39:17;;;;;;;6.30;5.80;;;;;;;13.53;100.00;99754.11;108501;1252;71878;-55
2024/04/14 04:41:45;;;;;;;6.30;5.70;;;;;;;13.62;100.00;99756.80;108493;1251;61533;-54
2024/04/14 04:44:13;;;;;;;;;;;;;;;13.71;100.00;99758.21;108604;1251;59806;-56
2024/04/14 04:46:40;;;;;;;6.70;5.30;;;;;;;13.46;100.00;99763.77;108527;1251;74393;-55
2024/04/14 04:49:08;;;;;;;6.30;4.90;;;;;;;13.16;100.00;99761.45;108443;1251;69374;-55
2024/04/14 04:51:36;;;;;;;6.60;4.70;;;;;;;13.73;100.00;99759.52;108367;1251;73307;-55
2024/04/14 04:54:05;;;;;;;;;;;;;;;13.90;100.00;99758.45;108470;1251;61778;-56
2024/04/14 04:56:32;;;;;;;4.40;4.00;;;;;;;14.03;100.00;99760.36;108375;1251;59624;-55
2024/04/14 04:59:00;;;;;;;;;;;;;;;14.13;100.00;99754.00;108492;1251;74527;-55
2024/04/14 05:01:28;;;;;;;4.90;3.90;;;;;;;14.26;100.00;99746.22;108368;1251;71012;-56
2024/04/14 05:03:56;;;;;;;3.80;3.40;;;;;;;13.82;100.00;99737.70;108141;1251;73414;-56
2024/04/14 05:06:25;;;;;;;5.40;3.90;;;;;;;14.18;100.00;99731.34;108001;1251;61838;-55
2024/04/14 05:08:53;;;;;;;5.10;4.00;;;;;;;14.16;100.00;99732.84;107278;1251;1000878;-56
2024/04/14 05:12:32;;;;;;;4.40;3.90;;;;;;;13.60;100.00;99736.42;104286;1286;601480;-57
2024/04/14 05:15:04;;;;;;;;;;;;;;;13.94;100.00;99736.00;106356;1266;62400;-57
2024/04/14 05:17:32;;;;;;;3.60;3.30;;;;;;;14.06;100.00;99738.36;106043;1267;60688;-58
2024/04/14 05:19:59;;;;;;;4.00;3.10;;;;;;;14.12;100.00;99740.33;106016;1269;73676;-55
2024/04/14 05:22:27;;;;;;;6.30;3.90;;;;;;;14.25;100.00;99737.30;105889;1266;68344;-55
2024/04/14 05:24:55;;;;;;;6.40;4.10;;;;;;;14.72;100.00;99735.34;105680;1266;75130;-56
2024/04/14 05:27:27;;;;;;;4.50;4.10;;;;;;;14.82;100.00;99734.89;106438;1257;64545;-56
2024/04/14 05:29:55;;;;;;;3.70;3.40;;;;;;;14.98;100.00;99732.05;106981;1257;59944;-56
2024/04/14 05:32:23;;;;;;;3.60;3.10;;;;;;;15.29;100.00;99732.27;107174;1260;74893;-56
2024/04/14 05:34:52;;;;;;;3.20;2.90;;;;;;;15.53;100.00;99724.98;107213;1257;71476;-56
2024/04/14 05:37:21;;;;;;;4.00;3.70;;;;;;;15.44;100.00;99724.34;107215;1257;72500;-56
2024/04/14 05:39:49;;;;;;;3.30;3.10;;;;;;;15.38;100.00;99721.30;107360;1256;63462;-56
2024/04/14 05:42:19;;;;;;;3.10;2.80;;;;;;;14.95;100.00;99720.35;106687;1257;62463;-56
2024/04/14 05:44:49;;;;;;;3.50;2.80;;;;;;;14.83;100.00;99723.73;106977;1253;73310;-56
2024/04/14 05:47:17;;;;;;;3.30;2.90;;;;;;;14.87;100.00;99723.16;107450;1253;70129;-56
2024/04/14 05:49:45;;;;;;;2.80;2.50;;;;;;;14.83;100.00;99720.06;107310;1254;71533;-60
2024/04/14 05:52:13;;;;;;;3.30;3.00;;;;;;;15.10;100.00;99720.06;107056;1252;61394;-56
2024/04/14 05:54:41;;;;;;;3.50;3.10;;;;;;;15.23;100.00;99725.26;106644;1253;62227;-55
2024/04/14 05:57:09;;;;;;;3.60;2.40;;;;;;;15.22;100.00;99723.03;106804;1253;75064;-55
2024/04/14 05:59:36;;;;;;;2.70;2.00;;;;;;;15.15;100.00;99716.37;106963;1254;73000;-55
2024/04/14 06:02:04;;;;;;;3.00;2.50;;;;;;;15.50;100.00;99710.31;107324;1254;73297;-56
2024/04/14 06:04:31;;;;;;;2.70;2.50;;;;;;;15.98;100.00;99709.45;107147;1254;61400;-56
2024/04/14 06:06:59;;;;;;;5.50;2.30;;;;;;;15.77;100.00;99710.09;106888;1255;60489;-56
2024/04/14 06:09:28;;;;;;;4.50;2.10;;;;;;;16.05;100.00;99711.67;107946;1254;74571;-56
2024/04/14 06:11:56;;;;;;;3.70;2.70;;;;;;;16.38;100.00;99712.87;107662;1254;71992;-57
2024/04/14 06:14:24;;;;;;;2.60;2.40;;;;;;;16.52;100.00;99707.73;108057;1254;72372;-56
2024/04/14 06:16:52;;;;;;;2.50;2.30;;;;;;;16.58;100.00;99706.09;108233;1254;62811;-56
2024/04/14 06:19:20;;;;;;;;;;;;;;;16.27;100.00;99704.25;108157;1254;59199;-57
2024/04/14 06:21:48;;;;;;;3.00;1.90;;;;;;;16.56;100.00;99695.61;108066;1254;73703;-56
2024/04/14 06:24:16;;;;;;;2.60;2.10;;;;;;;16.53;99.86;99698.11;107941;1253;69192;-56
2024/04/14 06:26:45;;;;;;;2.20;1.90;;;;;;;15.89;100.00;99699.98;108229;1254;73967;-56
2024/04/14 06:29:13;;;;;;;3.60;2.10;;;;;;;15.85;100.00;99695.83;108185;1254;61568;-56
2024/04/14 06:31:40;;;;;;;1.70;1.60;;;;;;;15.73;100.00;99694.41;108174;1254;60171;-56
2024/04/14 06:34:08;;;;;;;;;;;;;;;15.86;100.00;99691.14;107827;1254;74294;-56
2024/04/14 06:36:36;;;;;;;3.90;2.00;;;;;;;15.98;100.00;99688.94;107735;1254;71128;-56
2024/04/14 06:39:04;;;;;;;1.70;1.40;;;;;;;16.62;98.37;99683.70;108061;1253;71650;-56
2024/04/14 06:41:32;;;;;;;1.80;1.60;;;;;;;16.74;94.12;99676.73;108089;1254;61557;-58
2024/04/14 06:43:59;;;;;;;1.60;1.30;;;;;;;16.86;93.32;99678.23;108272;1253;60251;-57
2024/04/14 06:46:27;;;;;;;2.00;1.60;;;;;;;16.94;91.30;99676.61;108206;1253;74101;-56
2024/04/14 06:48:55;;;;;;;2.10;1.70;;;;;;;17.06;89.99;99671.92;107759;1254;69443;-57
2024/04/14 06:51:23;;;;;;;1.90;1.50;;;;;;;16.87;89.30;99668.77;108171;1254;72593;-56
2024/04/14 06:53:51;;;;;;;1.70;1.60;;;;;;;16.95;89.37;99671.62;107902;1253;60421;-57
2024/04/14 06:56:19;;;;;;;4.80;2.10;;;;;;;16.75;91.52;99674.30;108022;1253;60908;-57
2024/04/14 06:58:46;;;;;;;4.10;1.50;;;;;;;16.58;92.23;99678.16;108152;1253;73600;-61
2024/04/14 07:01:14;;;;;;;1.80;1.70;;;;;;;17.02;87.42;99677.64;108211;1253;69408;-56
2024/04/14 07:03:42;;;;;;;3.70;1.80;;;;;;;17.35;84.40;99676.80;108193;1254;72392;-56
2024/04/14 07:06:10;;;;;;;3.90;1.70;;;;;;;17.13;86.83;99669.27;107903;1253;60764;-56
2024/04/14 07:08:39;;;;;;;;;;;;;;;17.21;87.11;99666.73;108120;1253;61932;-56
2024/04/14 07:11:06;;;;;;;4.80;2.10;;;;;;;17.56;83.84;99671.37;107944;1254;74290;-56
2024/04/14 07:13:35;;;;;;;2.80;1.80;;;;;;;17.61;80.78;99672.68;108349;1253;73130;-56
2024/04/14 07:16:03;;;;;;;4.60;1.70;;;;;;;17.63;80.55;99667.39;108219;1254;73194;-57
2024/04/14 07:18:31;;;;;;;2.20;1.50;;;;;;;17.66;80.54;99669.05;107782;1254;62166;-56
2024/04/14 07:21:02;;;;;;;1.70;1.40;;;;;;;17.71;82.85;99668.80;108177;1254;61665;-56
2024/04/14 07:23:31;;;;;;;1.40;1.30;;;;;;;17.80;80.64;99665.64;108152;1254;75704;-56
2024/04/14 07:25:59;;;;;;;2.70;2.00;;;;;;;17.81;79.36;99665.54;108304;1253;72373;-56
2024/04/14 07:28:29;;;;;;;1.70;1.60;;;;;;;17.38;82.89;99665.92;108342;1254;72486;-56
2024/04/14 07:30:56;;;;;;;3.30;2.20;;;;;;;17.69;82.22;99666.42;107883;1255;58644;-56
2024/04/14 07:33:24;;;;;;;1.70;1.60;;;;;;;17.92;80.19;99659.64;107754;1254;58867;-56
2024/04/14 07:35:52;;;;;;;4.40;2.10;;;;;;;17.49;85.46;99663.20;108201;1253;73913;-56
2024/04/14 07:38:20;;;;;;;2.90;2.30;;;;;;;18.06;81.33;99664.66;108011;1254;70969;-56
2024/04/14 07:40:48;;;;;;;3.40;2.10;;;;;;;17.42;84.33;99655.36;107878;1254;72782;-57
2024/04/14 07:43:16;;;;;;;5.90;2.90;;;;;;;17.31;88.72;99655.30;107983;1255;58877;-57
2024/04/14 07:45:44;;;;;;;3.80;2.60;;;;;;;17.36;88.60;99654.58;107768;1254;60729;-56
2024/04/14 07:48:12;;;;;;;5.60;2.30;;;;;;;17.89;84.58;99649.03;107946;1254;76259;-59
2024/04/14 07:50:44;;;;;;;4.50;2.20;;;;;;;18.21;81.15;99640.09;108077;1254;72292;-56
2024/04/14 07:53:12;;;;;;;3.30;2.00;;;;;;;17.86;85.22;99640.56;108059;1254;73126;-56
2024/04/14 07:55:39;;;;;;;4.20;2.00;;;;;;;18.05;84.01;99637.38;108063;1254;59992;-57
2024/04/14 07:58:07;;;;;;;5.30;2.40;;;;;;;18.59;80.31;99629.98;108191;1253;59952;-57
2024/04/14 08:00:35;;;;;;;4.50;2.50;;;;;;;18.84;77.54;99630.25;108077;1254;73938;-56
2024/04/14 08:03:04;;;;;;;4.30;2.20;;;;;;;18.97;74.34;99626.71;107903;1254;69976;-56
2024/04/14 08:05:32;;;;;;;3.40;2.80;;;;;;;18.75;74.56;99617.06;108073;1254;72387;-57
2024/04/14 08:08:03;;;;;;;2.90;2.30;;;;;;;18.63;75.97;99614.79;108117;1254;58968;-56
2024/04/14 08:10:32;;;;;;;3.10;2.10;;;;;;;18.73;77.67;99612.94;108113;1254;61675;-57
2024/04/14 08:13:01;;;;;;;4.00;2.30;;;;;;;18.74;77.22;99612.17;107910;1253;74010;-56
2024/04/14 08:15:29;;;;;;;3.00;2.60;;;;;;;18.61;76.93;99607.84;108229;1254;69512;-56
2024/04/14 08:17:57;;;;;;;;;;;;;;;18.74;77.51;99606.12;107812;1254;72483;-56
2024/04/14 08:20:25;;;;;;;3.40;2.30;;;;;;;19.17;73.91;99604.92;107844;1253;60861;-56
2024/04/14 08:22:54;;;;;;;7.70;2.40;;;;;;;18.86;75.53;99602.22;108198;1254;62357;-57
2024/04/14 08:25:25;;;;;;;4.50;2.40;;;;;;;18.89;76.90;99599.86;108261;1254;73768;-59
2024/04/14 08:27:53;;;;;;;5.60;2.60;;;;;;;18.93;73.94;99585.29;108117;1254;69288;-56
2024/04/14 08:30:22;;;;;;;3.00;2.30;;;;;;;19.59;71.21;99581.45;107779;1254;74349;-56
2024/04/14 08:32:50;;;;;;;2.90;2.10;;;;;;;19.86;69.16;99574.50;107991;1253;60452;-56
2024/04/14 08:35:18;;;;;;;2.70;2.10;;;;;;;19.99;68.19;99571.52;108150;1254;59906;-55
2024/04/14 08:37:45;;;;;;;3.40;2.40;;;;;;;19.76;68.75;99569.80;108155;1254;74370;-56
2024/04/14 08:40:13;;;;;;;2.40;2.20;;;;;;;19.36;72.08;99562.86;108240;1254;69825;-56
2024/04/14 08:42:41;;;;;;;8.50;2.60;;;;;;;19.41;72.89;99561.79;108066;1256;72588;-56
2024/04/14 08:45:08;;;;;;;5.00;2.90;;;;;;;19.88;70.26;99556.52;108139;1254;61796;-56
2024/04/14 08:47:36;;;;;;;6.90;2.50;;;;;;;19.65;71.05;99559.44;108243;1254;61185;-56
2024/04/14 08:50:04;;;;;;;3.80;2.70;;;;;;;19.69;70.24;99546.88;108232;1253;74468;-56
2024/04/14 08:52:31;;;;;;;;;;;;;;;19.71;71.95;99545.36;108404;1253;69972;-56
2024/04/14 08:54:59;;;;;;;2.60;2.40;;;;;;;19.82;71.33;99549.94;107960;1254;71552;-55
2024/04/14 08:57:27;;;;;;;;;;;;;;;20.10;69.13;99548.09;108183;1253;59881;-55
2024/04/14 08:59:58;;;;;;;4.40;3.10;;;;;;;20.22;67.32;99540.58;108186;1254;60017;-56
2024/04/14 09:02:27;;;;;;;2.90;2.40;;;;;;;20.25;66.72;99537.11;108027;1256;73940;-55
2024/04/14 09:04:55;;;;;;;3.30;2.20;;;;;;;20.42;66.82;99528.03;107944;1254;69036;-57
2024/04/14 09:07:23;;;;;;;3.10;2.40;;;;;;;20.42;67.03;99525.13;107957;1254;72788;-55
2024/04/14 09:09:51;;;;;;;5.50;2.90;;;;;;;20.53;66.34;99519.59;108172;1254;60457;-56
2024/04/14 09:12:19;;;;;;;5.90;3.10;;;;;;;20.57;64.72;99512.31;108182;1254;59999;-56
2024/04/14 09:14:47;;;;;;;5.40;3.90;;;;;;;20.54;66.04;99511.15;108124;1253;72975;-55
2024/04/14 09:17:15;;;;;;;3.00;2.80;;;;;;;20.61;65.84;99504.69;108176;1254;69666;-56
2024/04/14 09:19:42;;;;;;;4.60;3.10;;;;;;;20.68;65.41;99499.81;108297;1253;73312;-55
2024/04/14 09:22:13;;;;;;;;;;;;;;;20.81;65.11;99494.55;108227;1254;60413;-56
2024/04/14 09:24:40;;;;;;;8.10;3.40;;;;;;;21.19;64.20;99497.06;108287;1254;60439;-56
2024/04/14 09:27:08;;;;;;;5.50;3.50;;;;;;;21.09;62.22;99490.73;108221;1254;74757;-55
2024/04/14 09:29:35;;;;;;;4.50;3.50;;;;;;;21.24;61.79;99490.63;108203;1254;70221;-56
2024/04/14 09:32:03;;;;;;;5.90;3.60;;;;;;;21.61;59.72;99486.74;108175;1254;72732;-56
2024/04/14 09:34:37;;;;;;;8.60;3.30;;;;;;;21.11;60.54;99487.86;108237;1254;59353;-56
2024/04/14 09:37:07;;;;;;;4.00;2.90;;;;;;;21.04;62.17;99484.75;108099;1254;60646;-55
2024/04/14 09:39:34;;;;;;;5.60;3.60;;;;;;;21.04;62.60;99482.05;108400;1254;74698;-56
2024/04/14 09:42:02;;;;;;;3.80;3.40;;;;;;;21.06;61.57;99481.89;108158;1254;70068;-55
2024/04/14 09:44:29;;;;;;;8.10;3.60;;;;;;;21.27;60.88;99474.45;108076;1254;73276;-56
2024/04/14 09:46:58;;;;;;;5.70;3.70;;;;;;;21.27;59.71;99471.77;108279;1254;59314;-55
2024/04/14 09:49:29;;;;;;;4.60;3.10;;;;;;;21.21;60.32;99464.98;108030;1254;60372;-55
2024/04/14 09:51:56;;;;;;;9.20;3.20;;;;;;;21.18;61.07;99465.31;108019;1254;74723;-56
2024/04/14 09:54:24;;;;;;;4.60;2.80;;;;;;;21.51;59.10;99456.83;108230;1254;68892;-56
2024/04/14 09:56:51;;;;;;;4.20;2.20;;;;;;;21.10;61.27;99455.67;107963;1254;74020;-56
2024/04/14 09:59:19;;;;;;;3.90;3.10;;;;;;;21.51;61.34;99453.02;108082;1254;60141;-56
2024/04/14 10:01:46;;;;;;;7.30;3.60;;;;;;;21.33;61.36;99450.58;108339;1254;60359;-56
2024/04/14 10:04:14;;;;;;;;;;;;;;;21.28;60.62;99448.22;108294;1254;75856;-56
2024/04/14 10:06:41;;;;;;;5.30;3.10;;;;;;;21.25;59.97;99442.79;108306;1254;69676;-56
2024/04/14 10:09:11;;;;;;;4.50;3.50;;;;;;;21.20;60.94;99438.74;108201;1254;73233;-56
2024/04/14 10:11:38;;;;;;;7.80;3.10;;;;;;;21.21;61.81;99434.16;108162;1254;59998;-58
2024/04/14 10:14:10;;;;;;;;;;;;;;;21.30;61.71;99427.48;108006;1254;59828;-58
2024/04/14 10:16:38;;;;;;;10.80;3.60;;;;;;;21.40;60.77;99422.50;108207;1253;74760;-58
2024/04/14 10:19:05;;;;;;;4.90;3.50;;;;;;;21.49;59.99;99415.84;108336;1254;68783;-58
2024/04/14 10:21:33;;;;;;;3.70;3.40;;;;;;;21.59;59.40;99411.45;108210;1254;73212;-58
2024/04/14 10:24:04;;;;;;;;;;;;;;;21.50;59.32;99409.98;108227;1254;59891;-60
2024/04/14 10:26:31;;;;;;;4.50;3.60;;;;;;;21.59;59.62;99405.75;108353;1254;59276;-56
2024/04/14 10:28:59;;;;;;;5.10;3.70;;;;;;;21.74;57.85;99400.08;108115;1256;74767;-57
2024/04/14 10:31:31;;;;;;;5.70;3.30;;;;;;;21.84;57.67;99396.11;108322;1254;71937;-56
2024/04/14 10:34:21;;;;;;;6.20;3.50;;;;;;;22.10;55.96;99388.86;107938;1254;72808;-57
2024/04/14 10:36:59;;;;;;;5.00;3.30;;;;;;;22.04;55.82;99381.61;108146;1254;60844;-57
2024/04/14 10:39:28;;;;;;;5.60;2.80;;;;;;;22.13;55.72;99385.58;108428;1254;60483;-56
2024/04/14 10:41:57;;;;;;;5.90;3.40;;;;;;;22.26;56.48;99373.96;108362;1254;77349;-58
2024/04/14 10:44:25;;;;;;;6.00;3.40;;;;;;;22.35;55.52;99366.73;108024;1254;70548;-56
2024/04/14 10:46:52;;;;;;;6.30;3.20;;;;;;;22.36;55.20;99359.14;108149;1254;73534;-57
2024/04/14 10:49:22;;;;;;;3.90;2.60;;;;;;;22.38;55.00;99351.52;108276;1254;59803;-57
2024/04/14 10:51:49;;;;;;;4.70;3.00;;;;;;;22.43;54.77;99357.16;108208;1254;60448;-56
2024/04/14 10:54:16;;;;;;;5.70;3.10;;;;;;;22.46;53.34;99347.12;108374;1253;73462;-57
2024/04/14 10:56:44;;;;;;;3.50;3.10;;;;;;;22.40;53.37;99341.95;108285;1254;70535;-57
2024/04/14 10:59:15;;;;;;;4.20;2.80;;;;;;;22.43;53.46;99329.71;108293;1254;72759;-56
2024/04/14 11:01:44;;;;;;;4.60;3.40;;;;;;;22.46;53.45;99327.46;108264;1254;59988;-58
2024/04/14 11:04:16;;;;;;;7.00;3.20;;;;;;;22.56;51.55;99317.92;108175;1256;59874;-59
2024/04/14 11:06:44;;;;;;;5.40;3.50;;;;;;;22.65;52.08;99310.80;107969;1259;74770;-57
2024/04/14 11:09:11;;;;;;;4.10;3.10;;;;;;;22.78;51.05;99306.80;107908;1256;69485;-57
2024/04/14 11:11:39;;;;;;;9.00;3.00;;;;;;;22.78;50.90;99292.91;108190;1254;72750;-57
2024/04/14 11:14:07;;;;;;;3.90;3.50;;;;;;;22.78;50.93;99288.38;108223;1254;60028;-57
2024/04/14 11:16:34;;;;;;;;;;;;;;;22.92;51.00;99291.47;108164;1253;59981;-56
2024/04/14 11:19:03;;;;;;;;;;;;;;;22.98;49.52;99289.30;108372;1253;74689;-56
2024/04/14 11:21:30;;;;;;;6.20;3.40;;;;;;;22.96;49.23;99275.31;108231;1255;69935;-57
2024/04/14 11:23:58;;;;;;;8.50;3.30;;;;;;;22.93;49.68;99275.45;108201;1254;72823;-57
2024/04/14 11:26:26;;;;;;;4.00;2.90;;;;;;;22.97;49.98;99274.56;108350;1256;59868;-56
2024/04/14 11:28:53;;;;;;;;;;;;;;;23.08;48.83;99275.95;107931;1253;59944;-58
2024/04/14 11:31:21;;;;;;;4.80;3.50;;;;;;;23.18;48.97;99266.55;108393;1255;74678;-56